• Join FlightAware (Why Join?)
  • Login
  • US Flag 
01:36AM EST


 

Airport Tracker/Info


-or-


 

Live Flight TrackerFlight Track Log ✈ N781JS ✈ 11-Jul-2014 ✈ KARV - KTEX

Flight Track Log - Related Links

Times and Time Zones

All times are in EDT time to prevent confusion due to time zone crossing. See the N781JS flight status page for this flight to view local times or setup timezone preferences in your user account.

Time Position Orientation Groundspeed Altitude Reporting Facility
EDT Latitude Longitude Course Direction KTS MPH feet Rate Location/Type
06:26PM 45.8928 -89.7931 243° Southwest 175 201 5,600  Level Minneapolis Center
06:27PM 45.8658 -89.8689 243° Southwest 193 222 8,600 2,855 Climbing Minneapolis Center
06:28PM 45.8381 -89.9556 245° Southwest 218 251 11,500 2,661 Climbing Minneapolis Center
06:29PM 45.8103 -90.0453 246° West 237 273 14,100 2,661 Climbing Minneapolis Center
06:30PM 45.7747 -90.1583 246° West 254 292 17,000 2,419 Climbing Minneapolis Center
06:31PM 45.7433 -90.2572 246° West 270 311 19,100 2,081 Climbing Minneapolis Center
06:32PM 45.7111 -90.3592 246° West 278 320 21,300 2,177 Climbing Minneapolis Center
06:33PM 45.6794 -90.4600 246° West 279 321 23,600 1,984 Climbing Minneapolis Center
06:34PM 45.6464 -90.5617 245° Southwest 279 321 25,400 1,584 Climbing Minneapolis Center
06:35PM 45.6125 -90.6661 245° Southwest 285 328 26,900 1,680 Climbing Minneapolis Center
06:36PM 45.5700 -90.7972 245° Southwest 298 343 28,900 1,597 Climbing Minneapolis Center
06:37PM 45.5333 -90.9072 245° Southwest 305 351 30,200 1,306 Climbing Minneapolis Center
06:38PM 45.4958 -91.0197 245° Southwest 310 357 31,600 1,452 Climbing Minneapolis Center
06:39PM 45.4597 -91.1283 245° Southwest 310 357 33,200 1,355 Climbing Minneapolis Center
06:40PM 45.4250 -91.2347 245° Southwest 303 349 34,400 1,161 Climbing Minneapolis Center
06:41PM 45.3897 -91.3436 245° Southwest 303 349 35,600 1,161 Climbing Minneapolis Center
06:42PM 45.3450 -91.4778 245° Southwest 306 352 36,800 1,016 Climbing Minneapolis Center
06:43PM 45.3072 -91.5914 245° Southwest 313 360 37,700 816 Climbing Minneapolis Center
06:44PM 45.2700 -91.7072 245° Southwest 317 365 38,500 768 Climbing Minneapolis Center
06:45PM 45.2300 -91.8239 244° Southwest 324 373 39,300 774 Climbing Minneapolis Center
06:46PM 45.1903 -91.9392 244° Southwest 324 373 40,100 774 Climbing Minneapolis Center
06:47PM 45.1517 -92.0556 245° Southwest 325 374 40,900 823 Climbing Minneapolis Center
06:48PM 45.1039 -92.1950 244° Southwest 326 375 41,800 774 Climbing Minneapolis Center
06:49PM 45.0650 -92.3097 244° Southwest 325 374 42,500 581 Climbing Minneapolis Center
06:50PM 45.0244 -92.4247 244° Southwest 325 374 43,000 242 Climbing Minneapolis Center
06:51PM 44.9839 -92.5442 244° Southwest 331 381 43,000  Level Minneapolis Center
06:52PM 44.9406 -92.6667 243° Southwest 344 396 43,000  Level Minneapolis Center
06:53PM 44.8969 -92.7919 244° Southwest 354 407 43,000  Level Minneapolis Center
06:55PM 44.8444 -92.9414 244° Southwest 353 406 43,000  Level Minneapolis Center
06:56PM 44.7989 -93.0706 244° Southwest 356 410 43,000  Level Minneapolis Center
06:57PM 44.7592 -93.1864 244° Southwest 364 419 43,000  Level Minneapolis Center
06:58PM 44.7064 -93.3350 243° Southwest 363 418 43,000  Level Minneapolis Center
06:59PM 44.6594 -93.4625 243° Southwest 365 420 43,000  Level Minneapolis Center
07:00PM 44.6142 -93.5892 243° Southwest 364 419 43,000  Level Minneapolis Center
07:01PM 44.5692 -93.7144 243° Southwest 363 418 43,000  Level Minneapolis Center
07:02PM 44.5236 -93.8400 243° Southwest 362 417 43,000  Level Minneapolis Center
07:03PM 44.4678 -93.9911 243° Southwest 363 418 43,000  Level Minneapolis Center
07:04PM 44.4219 -94.1167 243° Southwest 362 417 43,000  Level Minneapolis Center
07:05PM 44.3758 -94.2431 243° Southwest 363 418 43,000  Level Minneapolis Center
07:06PM 44.3294 -94.3692 243° Southwest 363 418 43,000  Level Minneapolis Center
07:07PM 44.2825 -94.4947 242° Southwest 364 419 43,000  Level Minneapolis Center
07:08PM 44.2289 -94.6369 242° Southwest 365 420 43,000  Level Minneapolis Center
07:09PM 44.1819 -94.7631 243° Southwest 365 420 43,000  Level Minneapolis Center
07:10PM 44.1344 -94.8889 242° Southwest 366 421 43,000  Level Minneapolis Center
07:11PM 44.0864 -95.0139 242° Southwest 367 422 43,000  Level Minneapolis Center
07:12PM 44.0394 -95.1392 243° Southwest 367 422 43,000  Level Minneapolis Center
07:13PM 43.9819 -95.2894 242° Southwest 367 422 43,000  Level Minneapolis Center
07:14PM 43.9331 -95.4136 241° Southwest 366 421 43,000  Level Minneapolis Center
07:15PM 43.8861 -95.5397 243° Southwest 366 421 43,000  Level Minneapolis Center
07:16PM 43.8369 -95.6619 241° Southwest 366 421 43,000  Level Minneapolis Center
07:17PM 43.7894 -95.7844 242° Southwest 364 419 43,000  Level Minneapolis Center
07:18PM 43.7417 -95.9061 242° Southwest 360 414 43,000  Level Minneapolis Center
07:19PM 43.6847 -96.0508 241° Southwest 358 412 43,000  Level Minneapolis Center
07:20PM 43.6372 -96.1708 241° Southwest 358 412 43,000  Level Minneapolis Center
07:21PM 43.5892 -96.2919 241° Southwest 357 411 43,000  Level Minneapolis Center
07:22PM 43.5417 -96.4114 241° Southwest 357 411 43,000  Level Minneapolis Center
07:23PM 43.4947 -96.5319 242° Southwest 357 411 43,000  Level Minneapolis Center
07:25PM 43.4467 -96.6506 241° Southwest 357 411 43,000  Level Minneapolis Center
07:26PM 43.3989 -96.7700 241° Southwest 357 411 43,000  Level Minneapolis Center
07:27PM 43.3417 -96.9125 241° Southwest 356 410 43,000  Level Minneapolis Center
07:28PM 43.2931 -97.0317 241° Southwest 356 410 43,000  Level Minneapolis Center
07:29PM 43.2444 -97.1486 240° Southwest 357 411 43,000  Level Minneapolis Center
07:30PM 43.1969 -97.2683 241° Southwest 356 410 43,000  Level Minneapolis Center
07:31PM 43.1475 -97.3858 240° Southwest 357 411 43,000  Level Minneapolis Center
07:32PM 43.0983 -97.5042 240° Southwest 357 411 43,000  Level Minneapolis Center
07:33PM 43.0403 -97.6444 241° Southwest 356 410 43,000  Level Minneapolis Center
07:34PM 42.9914 -97.7619 240° Southwest 356 410 43,000  Level Minneapolis Center
07:35PM 42.9422 -97.8811 241° Southwest 356 410 43,000  Level Minneapolis Center
07:36PM 42.8936 -97.9978 240° Southwest 356 410 43,000  Level Minneapolis Center
07:37PM 42.8428 -98.1128 239° Southwest 356 410 43,000  Level Minneapolis Center
07:38PM 42.7869 -98.2461 240° Southwest 356 410 43,000  Level Minneapolis Center
07:39PM 42.7378 -98.3636 240° Southwest 356 410 43,000  Level Minneapolis Center
07:40PM 42.6878 -98.4794 240° Southwest 357 411 43,000  Level Minneapolis Center
07:41PM 42.6381 -98.5964 240° Southwest 357 411 43,000  Level Minneapolis Center
07:42PM 42.5772 -98.7364 239° Southwest 357 411 43,000  Level Minneapolis Center
07:43PM 42.5272 -98.8519 240° Southwest 358 412 43,000  Level Minneapolis Center
07:44PM 42.4767 -98.9692 240° Southwest 358 412 43,000  Level Minneapolis Center
07:45PM 42.4267 -99.0853 240° Southwest 358 412 43,000  Level Minneapolis Center
07:46PM 42.3756 -99.2003 239° Southwest 358 412 43,000  Level Minneapolis Center
07:47PM 42.3244 -99.3172 239° Southwest 358 412 43,000  Level Minneapolis Center
07:48PM 42.2633 -99.4536 239° Southwest 358 412 43,000  Level Minneapolis Center
07:50PM 42.2028 -99.5917 239° Southwest 356 410 43,000  Level Denver Center
07:50PM 42.1622 -99.6836 239° Southwest 358 412 43,000  Level Minneapolis Center
07:51PM 42.1103 -99.7967 238° Southwest 357 411 43,000  Level Minneapolis Center
07:52PM 42.0603 -99.9100 239° Southwest 357 411 43,000  Level Minneapolis Center
07:54PM 41.9958 -100.0514 239° Southwest 356 410 43,000  Level Denver Center
07:55PM 41.9375 -100.1769 238° Southwest 356 410 43,000  Level Denver Center
07:56PM 41.8892 -100.2856 239° Southwest 356 410 43,000  Level Denver Center
07:57PM 41.8397 -100.3942 239° Southwest 356 410 43,000  Level Denver Center
07:58PM 41.7831 -100.5200 239° Southwest 356 410 43,000  Level Denver Center
07:59PM 41.7331 -100.6292 238° Southwest 356 410 43,000  Level Denver Center
08:00PM 41.6514 -100.7331 224° Southwest 372 428 43,000  Level Denver Center
08:01PM 41.5789 -100.8167 221° Southwest 363 418 43,000  Level Denver Center
08:02PM 41.4944 -100.9150 221° Southwest 364 419 43,000  Level Denver Center
08:03PM 41.4214 -101.0003 221° Southwest 364 419 43,000  Level Denver Center
08:04PM 41.3372 -101.0992 221° Southwest 365 420 43,000  Level Denver Center
08:05PM 41.2636 -101.1839 221° Southwest 365 420 43,000  Level Denver Center
08:06PM 41.1789 -101.2817 221° Southwest 365 420 43,000  Level Denver Center
08:07PM 41.1067 -101.3653 221° Southwest 364 419 43,000  Level Denver Center
08:08PM 41.0208 -101.4611 220° Southwest 364 419 43,000  Level Denver Center
08:09PM 40.9467 -101.5442 220° Southwest 364 419 43,000  Level Denver Center
08:10PM 40.8614 -101.6408 221° Southwest 364 419 43,000  Level Denver Center
08:11PM 40.7800 -101.7114 213° Southwest 364 419 43,000  Level Denver Center
08:12PM 40.6803 -101.7833 209° Southwest 368 423 43,000  Level Denver Center
08:13PM 40.6050 -101.8592 217° Southwest 361 415 43,000  Level Denver Center
08:14PM 40.5222 -101.9522 221° Southwest 356 410 43,000  Level Denver Center
08:15PM 40.4511 -102.0317 220° Southwest 354 407 43,000 290 Level Denver Center
08:16PM 40.3739 -102.1403 227° Southwest 363 418 43,600 484 Climbing Denver Center
08:17PM 40.3144 -102.2406 232° Southwest 364 419 44,000 435 Climbing Denver Center
08:18PM 40.2594 -102.3456 236° Southwest 365 420 44,500 488 Climbing Denver Center
08:19PM 40.1950 -102.4692 236° Southwest 366 421 45,000 244 Climbing Denver Center
08:20PM 40.1433 -102.5797 239° Southwest 368 423 45,000  Level Denver Center
08:22PM 40.0797 -102.7142 238° Southwest 375 432 45,000  Level Denver Center
08:23PM 40.0231 -102.8297 237° Southwest 376 433 45,000  Level Denver Center
08:24PM 39.9678 -102.9475 239° Southwest 379 436 45,000  Level Denver Center
08:25PM 39.9142 -103.0658 239° Southwest 380 437 45,000  Level Denver Center
08:26PM 39.8597 -103.1853 239° Southwest 383 441 45,000  Level Denver Center
08:27PM 39.8069 -103.3061 240° Southwest 383 441 45,000  Level Denver Center
08:28PM 39.7572 -103.4292 242° Southwest 384 442 45,000  Level Denver Center
08:29PM 39.7036 -103.5789 245° Southwest 384 442 45,000  Level Denver Center
08:30PM 39.6556 -103.7036 243° Southwest 384 442 45,000  Level Denver Center
08:31PM 39.6086 -103.8278 244° Southwest 386 444 45,000  Level Denver Center
08:32PM 39.5633 -103.9478 244° Southwest 372 428 45,000  Level Denver Center
08:33PM 39.5175 -104.0678 244° Southwest 372 428 45,000  Level Denver Center
08:34PM 39.4708 -104.1883 243° Southwest 372 428 45,000 -98 Level Denver Center
08:35PM 39.4236 -104.3100 243° Southwest 373 429 44,800 -878 Descending Denver Center
08:36PM 39.3761 -104.4331 243° Southwest 376 433 43,200 -2,032 Descending Denver Center
08:37PM 39.3194 -104.5806 244° Southwest 379 436 40,600 -2,468 Descending Denver Center
08:38PM 39.2731 -104.6986 243° Southwest 369 425 38,100 -1,306 Descending Denver Center
08:39PM 39.2253 -104.8214 243° Southwest 376 433 37,900 -871 Descending Denver Center
08:40PM 39.1756 -104.9494 243° Southwest 394 453 36,300 -1,500 Descending Denver Center
08:41PM 39.1258 -105.0772 243° Southwest 399 459 34,800 -1,122 Descending Denver Center
08:42PM 39.0747 -105.2042 243° Southwest 399 459 34,000 -390 Descending Denver Center
08:43PM 39.0253 -105.3303 243° Southwest 399 459 34,000  Level Denver Center
08:44PM 38.9744 -105.4553 242° Southwest 398 458 34,000  Level Denver Center
08:45PM 38.9128 -105.6083 243° Southwest 401 461 34,000  Level Denver Center
08:46PM 38.8628 -105.7350 243° Southwest 401 461 34,000  Level Denver Center
08:47PM 38.8108 -105.8617 242° Southwest 400 460 34,000  Level Denver Center
08:48PM 38.7586 -105.9900 242° Southwest 402 463 34,000  Level Denver Center
08:49PM 38.7083 -106.1147 243° Southwest 400 460 34,000  Level Denver Center
08:50PM 38.6594 -106.2311 242° Southwest 394 453 34,000  Level Denver Center
08:51PM 38.5983 -106.3781 242° Southwest 388 447 34,000  Level Denver Center
08:52PM 38.5481 -106.4997 242° Southwest 387 445 34,000 -146 Level Denver Center
08:53PM 38.4967 -106.6222 242° Southwest 388 447 33,700 -1,258 Descending Denver Center
08:55PM 38.4447 -106.7497 243° Southwest 397 457 31,400 -2,226 Descending Denver Center
08:56PM 38.3908 -106.8769 242° Southwest 402 463 29,100 -2,081 Descending Denver Center
08:57PM 38.3381 -107.0036 242° Southwest 403 464 27,100 -1,403 Descending Denver Center
08:58PM 38.2872 -107.1242 242° Southwest 393 452 26,200 -537 Descending Denver Center
08:59PM 38.2547 -107.2508 252° West 383 441 26,000 -98 Descending Denver Center
09:00PM 38.2297 -107.3961 258° West 357 411 26,000  Level Denver Center
09:01PM 38.2083 -107.5175 257° West 356 410 26,000 -145 Level Denver Center
09:02PM 38.1883 -107.6358 258° West 356 410 25,700 -1,403 Descending Denver Center
09:03PM 38.1631 -107.7731 257° West 360 414 23,100 -2,468 Descending Denver Center
09:04PM 38.1372 -107.9061 256° West 362 417 20,600 -2,341 Descending Denver Center
09:05PM 38.1181 -108.0264 259° West 353 406 18,300 -2,390 Descending Denver Center
09:06PM 38.0969 -108.1422 257° West 343 395 15,700 -1,306 Descending Denver Center
09:07PM 38.0733 -108.2344 252° West 288 331 15,600 -48 Descending Denver Center
09:08PM 38.0428 -108.3153 244° Southwest 279 321 15,600 -484 Level Denver Center
09:09PM 38.0778 -108.4006 298° West 275 316 14,600 -1,171 Descending Denver Center
09:10PM 38.1292 -108.4269 338° Northwest 251 289 13,200 -976 Descending Denver Center
09:11PM 38.1075 -108.3603 112° Southeast 208 239 12,600 -290 Descending Denver Center
09:12PM 38.0592 -108.3147 143° Southeast 211 243 12,600  Level Denver Center